Data for 04/26/2005

Time Sea-Level Adjusted Pressure Absolute Pressure Temperature Relative Humidity Dew Point   
(mb) (inHg) (mb) (inHg) (C) (F) (%) (C) (F)
00:05 1018 30.06 847 25.01 5.5 41.9 58 -2.2 28
00:10 1018 30.06 847 25.01 5.6 42.1 56 -2.5 27.5
00:15 1018 30.06 848 25.04 5.7 42.3 55 -2.5 27.5
00:20 1018 30.06 848 25.04 5.8 42.4 56 -2.3 27.8
00:25 1018 30.06 848 25.04 5.5 41.8 57 -2.3 27.9
00:30 1018 30.06 847 25.01 5.4 41.8 56 -2.7 27.1
00:35 1018 30.06 847 25.01 5.6 42 56 -2.6 27.4
00:40 1018 30.06 847 25.01 5.7 42.2 55 -2.6 27.4
00:45 1018 30.06 847 25.01 5.6 42 57 -2.3 27.8
00:50 1018 30.06 848 25.04 5.5 41.8 57 -2.4 27.8
00:55 1018 30.06 848 25.04 5.4 41.8 56 -2.7 27.2
01:00 1018 30.06 847 25.01 5.6 42.1 56 -2.5 27.4
01:05 1018 30.06 848 25.04 5.7 42.3 55 -2.6 27.4
01:10 1018 30.06 848 25.04 5.8 42.4 55 -2.5 27.4
01:15 1018 30.06 847 25.01 5.8 42.5 55 -2.6 27.3
01:20 1018 30.06 847 25.01 5.7 42.3 56 -2.4 27.7
01:25 1018 30.06 847 25.01 5.4 41.8 57 -2.3 27.8
01:30 1018 30.06 847 25.01 5.1 41.1 58 -2.5 27.6
01:35 1018 30.06 847 25.01 5.3 41.6 55 -2.9 26.8
01:40 1018 30.06 847 25.01 5.8 42.4 55 -2.7 27.2
01:45 1018 30.06 847 25.01 5.4 41.7 57 -2.3 27.8
01:50 1018 30.06 847 25.01 5 41 59 -2.3 27.9
01:55 1018 30.06 847 25.01 4.7 40.4 59 -2.7 27.1
02:00 1018 30.06 847 25.01 5.1 41.1 58 -2.6 27.4
02:05 1018 30.06 847 25.01 4.9 40.9 60 -2.2 28
02:10 1018 30.06 847 25.01 4.6 40.2 60 -2.6 27.4
02:15 1018 30.06 847 25.01 4.6 40.3 59 -2.6 27.3
02:20 1018 30.06 847 25.01 4.5 40.1 60 -2.5 27.5
02:25 1018 30.06 847 25.01 4.7 40.4 58 -2.9 26.7
02:30 1018 30.06 847 25.01 5.3 41.5 56 -2.8 26.9
02:35 1018 30.06 847 25.01 5.5 42 56 -2.6 27.3
02:40 1018 30.06 847 25.01 5.5 41.8 56 -2.6 27.3
02:45 1018 30.06 847 25.01 5.2 41.3 58 -2.5 27.5
02:50 1018 30.06 847 25.01 4.9 40.8 59 -2.4 27.6
02:55 1018 30.06 847 25.01 4.6 40.2 60 -2.5 27.4
03:00 1018 30.06 847 25.01 4.4 40 60 -2.6 27.3
03:05 1018 30.06 847 25.01 4.4 39.8 60 -2.6 27.2
03:10 1018 30.06 847 25.01 4.3 39.7 61 -2.6 27.2
03:15 1018 30.06 847 25.01 4.4 39.9 60 -2.7 27.2
03:20 1018 30.06 847 25.01 4.3 39.7 61 -2.6 27.4
03:25 1018 30.06 847 25.01 4.2 39.6 60 -2.8 27
03:30 1018 30.06 848 25.04 4.4 39.8 60 -2.6 27.3
03:35 1018 30.06 848 25.04 4.3 39.7 61 -2.7 27.2
03:40 1018 30.06 847 25.01 4.5 40 59 -2.9 26.8
03:45 1018 30.06 848 25.04 4.8 40.7 57 -2.9 26.7
03:50 1018 30.06 848 25.04 5.2 41.4 56 -2.9 26.8
03:55 1018 30.06 848 25.04 5.5 41.9 56 -2.7 27.2
04:00 1018 30.06 848 25.04 5.2 41.4 57 -2.6 27.3
04:05 1018 30.06 848 25.04 4.9 40.8 59 -2.4 27.7
04:10 1018 30.06 848 25.04 4.5 40.1 61 -2.4 27.6
04:15 1018 30.06 848 25.04 4.4 40 59 -2.8 26.9
04:20 1018 30.06 848 25.04 4.7 40.5 58 -2.7 27.1
04:25 1019 30.09 848 25.04 4.7 40.5 59 -2.7 27.2
04:30 1019 30.09 848 25.04 4.3 39.7 62 -2.3 27.8
04:35 1019 30.09 848 25.04 4 39.2 61 -2.9 26.8
04:40 1019 30.09 848 25.04 4.4 39.8 60 -2.6 27.3
04:45 1019 30.09 848 25.04 4 39.2 62 -2.6 27.4
04:50 1019 30.09 848 25.04 3.9 39 63 -2.6 27.3
04:55 1018 30.06 848 25.04 4.2 39.5 61 -2.7 27.2
05:00 1018 30.06 848 25.04 4.5 40 60 -2.6 27.2
05:05 1019 30.09 848 25.04 4.7 40.5 59 -2.6 27.3
05:10 1019 30.09 848 25.04 4.8 40.7 58 -2.6 27.3
05:15 1019 30.09 848 25.04 5.1 41.2 57 -2.7 27.1
05:20 1019 30.09 848 25.04 5.3 41.6 57 -2.5 27.4
05:25 1018 30.06 848 25.04 5.4 41.7 57 -2.4 27.7
05:30 1018 30.06 848 25.04 5.3 41.5 58 -2.2 28
05:35 1018 30.06 848 25.04 5.2 41.3 59 -2.3 27.9
05:40 1019 30.09 848 25.04 5.2 41.4 59 -2 28.3
05:45 1018 30.06 848 25.04 5 41 60 -2.1 28.2
05:50 1018 30.06 848 25.04 5 41 59 -2.3 27.9
05:55 1018 30.06 848 25.04 5.2 41.3 59 -2.2 28.1
06:00 1019 30.09 848 25.04 5.3 41.5 59 -2 28.3
06:05 1019 30.09 848 25.04 5.1 41.1 61 -1.9 28.6
06:10 1019 30.09 848 25.04 5.1 41.2 58 -2.5 27.5
06:15 1019 30.09 848 25.04 5.4 41.7 57 -2.3 27.8
06:20 1018 30.06 848 25.04 5.7 42.3 56 -2.3 27.9
06:25 1019 30.09 848 25.04 5.8 42.5 58 -1.7 28.9
06:30 1019 30.09 848 25.04 5.6 42.1 60 -1.6 29.1
06:35 1019 30.09 848 25.04 5.7 42.2 60 -1.6 29.2
06:40 1019 30.09 848 25.04 5.7 42.2 60 -1.5 29.3
06:45 1019 30.09 848 25.04 5.5 42 60 -1.6 29.1
06:50 1019 30.09 848 25.04 5.7 42.3 59 -1.7 29
06:55 1019 30.09 848 25.04 5.8 42.4 59 -1.6 29.1
07:00 1019 30.09 848 25.04 6 42.8 58 -1.7 28.9
07:05 1019 30.09 848 25.04 6 42.8 59 -1.5 29.4
07:10 1019 30.09 848 25.04 5.9 42.7 60 -1.1 29.9
07:15 1019 30.09 848 25.04 5.9 42.6 61 -1.1 30
07:20 1019 30.09 848 25.04 5.9 42.6 60 -1.2 29.8
07:25 1019 30.09 848 25.04 5.9 42.7 61 -1.1 30
07:30 1019 30.09 848 25.04 5.9 42.7 59 -1.4 29.5
07:35 1019 30.09 848 25.04 6.1 42.9 59 -1.4 29.5
07:40 1019 30.09 848 25.04 6.3 43.3 59 -1.2 29.8
07:45 1019 30.09 848 25.04 6.6 43.9 58 -1 30.1
07:50 1019 30.09 848 25.04 6.7 44 58 -0.9 30.3
07:55 1019 30.09 848 25.04 6.9 44.5 58 -0.6 30.9
08:00 1019 30.09 849 25.07 6.8 44.2 62 -0.1 31.9
08:05 1020 30.12 849 25.07 6.4 43.5 61 -0.5 31.1
08:10 1019 30.09 849 25.07 6.8 44.3 59 -0.5 31
08:15 1019 30.09 849 25.07 7.2 44.9 58 -0.4 31.2
08:20 1019 30.09 848 25.04 7.2 44.9 59 -0.2 31.6
08:25 1019 30.09 849 25.07 7.1 44.8 62 0.3 32.5
08:30 1019 30.09 849 25.07 7.2 44.9 63 0.7 33.2
08:35 1019 30.09 849 25.07 7.7 45.8 60 0.5 32.9
08:40 1019 30.09 849 25.07 8.3 47 58 0.6 33.1
08:45 1019 30.09 849 25.07 8.6 47.5 59 1 33.8
08:50 1020 30.12 849 25.07 8.6 47.5 57 0.7 33.3
08:55 1020 30.12 849 25.07 8.8 47.9 54 0.2 32.3
09:00 1020 30.12 849 25.07 8.8 47.9 54 0.2 32.3
09:05 1020 30.12 849 25.07 9 48.2 54 0.3 32.5
09:10 1020 30.12 849 25.07 9.2 48.5 52 -0 32
09:15 1020 30.12 849 25.07 9.3 48.8 53 0.2 32.3
09:20 1020 30.12 849 25.07 8.8 47.8 54 -0 32
09:25 1020 30.12 849 25.07 8.9 48.1 52 -0.4 31.2
09:30 1020 30.12 849 25.07 9.1 48.4 51 -0.4 31.3
09:35 1020 30.12 850 25.1 9.4 48.8 50 -0.4 31.2
09:40 1020 30.12 850 25.1 9.4 48.9 48 -1 30.3
09:45 1021 30.15 850 25.1 9.4 48.8 48 -1 30.1
09:50 1021 30.15 850 25.1 9.4 48.9 48 -1.1 30.1
09:55 1021 30.15 850 25.1 9.4 49 48 -1 30.1
10:00 1021 30.15 850 25.1 9.5 49.1 48 -0.8 30.5
10:05 1021 30.15 850 25.1 9.5 49 49 -0.8 30.6
10:10 1021 30.15 850 25.1 9.5 49.1 49 -0.7 30.8
10:15 1021 30.15 850 25.1 9.7 49.4 47 -0.9 30.3
10:20 1021 30.15 850 25.1 9.6 49.3 48 -0.9 30.3
10:25 1021 30.15 850 25.1 9.5 49.1 49 -0.7 30.8
10:30 1021 30.15 850 25.1 9.6 49.2 49 -0.5 31
10:35 1021 30.15 850 25.1 9.7 49.4 48 -0.7 30.8
10:40 1021 30.15 850 25.1 9.7 49.4 49 -0.4 31.3
10:45 1021 30.15 850 25.1 9.8 49.6 50 -0.2 31.7
10:50 1021 30.15 850 25.1 10.1 50.1 49 -0.1 31.7
10:55 1021 30.15 850 25.1 10.9 51.5 47 0.1 32.2
11:00 1021 30.15 850 25.1 11.6 52.9 45 0 32.1
11:05 1021 30.15 850 25.1 11.5 52.6 48 1 33.8
11:10 1021 30.15 850 25.1 11.3 52.4 45 -0.1 31.8
11:15 1021 30.15 850 25.1 11.7 53 43 -0.3 31.4
11:20 1021 30.15 850 25.1 12.3 54.2 42 -0.3 31.5
11:25 1021 30.15 850 25.1 12.3 54.1 39 -1.2 29.9
11:30 1021 30.15 850 25.1 12.7 54.8 36 -1.9 28.5
11:35 1021 30.15 850 25.1 12.8 55 35 -2.3 27.8
11:40 1021 30.15 850 25.1 12.5 54.4 38 -1.3 29.7
11:45 1021 30.15 850 25.1 12 53.5 36 -2.5 27.4
11:50 1021 30.15 850 25.1 12.8 55 33 -2.9 26.7
11:55 1021 30.15 850 25.1 12.9 55.3 33 -2.7 27.1
12:00 1021 30.15 850 25.1 13.1 55.5 33 -2.7 27.1
12:05 1021 30.15 850 25.1 13.2 55.7 33 -2.7 27.1
12:10 1021 30.15 850 25.1 13 55.5 34 -2.4 27.7
12:15 1021 30.15 850 25.1 12.2 54 35 -2.7 27.2
12:20 1021 30.15 850 25.1 12.1 53.9 35 -2.8 26.9
12:25 1021 30.15 850 25.1 12.8 55 34 -2.7 27.2
12:30 1021 30.15 850 25.1 12.5 54.4 34 -3 26.5
12:35 1021 30.15 850 25.1 11.8 53.3 35 -3.2 26.3
12:40 1021 30.15 850 25.1 12 53.6 34 -3.5 25.7
12:45 1021 30.15 850 25.1 12.4 54.4 33 -3.2 26.3
12:50 1021 30.15 850 25.1 12.3 54.1 34 -3 26.7
12:55 1021 30.15 850 25.1 12.4 54.3 34 -3.1 26.4
13:00 1021 30.15 850 25.1 12 53.5 34 -3.2 26.3
13:05 1021 30.15 850 25.1 11.5 52.7 37 -2.8 27
13:10 1021 30.15 850 25.1 11.4 52.5 36 -2.9 26.8
13:15 1021 30.15 850 25.1 11.4 52.5 37 -2.7 27.2
13:20 1021 30.15 850 25.1 11.3 52.3 37 -2.8 26.9
13:25 1021 30.15 850 25.1 11.1 51.9 36 -3.2 26.2
13:30 1021 30.15 850 25.1 11 51.8 37 -3.2 26.2
13:35 1021 30.15 850 25.1 11.2 52.1 36 -3.2 26.3
13:40 1021 30.15 850 25.1 11.4 52.4 35 -3.4 25.8
13:45 1021 30.15 850 25.1 11.2 52.2 37 -3 26.6
13:50 1021 30.15 850 25.1 11.2 52.2 36 -3.4 25.8
13:55 1021 30.15 850 25.1 11.2 52.2 35 -3.5 25.7
14:00 1021 30.15 850 25.1 11.3 52.4 36 -3.3 26
14:05 1021 30.15 850 25.1 11 51.9 37 -3.1 26.4
14:10 1021 30.15 850 25.1 11.1 52 37 -3.1 26.5
14:15 1020 30.12 850 25.1 11.1 52 37 -3.1 26.4
14:20 1020 30.12 850 25.1 11 51.7 37 -3.2 26.2
14:25 1020 30.12 850 25.1 11.6 52.8 35 -3.2 26.2
14:30 1020 30.12 850 25.1 11.7 53 35 -3.4 26
14:35 1020 30.12 850 25.1 11.1 52 36 -3.4 25.8
14:40 1020 30.12 850 25.1 11.1 51.9 35 -3.6 25.5
14:45 1020 30.12 850 25.1 11 51.9 36 -3.3 26
14:50 1020 30.12 849 25.07 11.3 52.3 35 -3.5 25.7
14:55 1020 30.12 850 25.1 11.3 52.3 36 -3.4 25.9
15:00 1020 30.12 849 25.07 11.5 52.6 35 -3.3 26
15:05 1020 30.12 849 25.07 12 53.5 34 -3.4 25.9
15:10 1020 30.12 849 25.07 11.8 53.2 35 -3 26.7
15:15 1020 30.12 849 25.07 11.9 53.4 34 -3.4 25.8
15:20 1020 30.12 849 25.07 12.2 53.9 34 -3.3 26
15:25 1020 30.12 849 25.07 12.2 53.9 35 -2.9 26.8
15:30 1020 30.12 849 25.07 12.1 53.8 34 -3.4 25.9
15:35 1020 30.12 849 25.07 12.3 54.1 33 -3.3 26.1
15:40 1020 30.12 849 25.07 12.9 55.2 32 -3.4 26
15:45 1020 30.12 849 25.07 12.9 55.2 33 -3 26.6
15:50 1020 30.12 849 25.07 12.6 54.7 34 -2.9 26.7
15:55 1020 30.12 849 25.07 12.4 54.3 34 -2.9 26.7
16:00 1020 30.12 849 25.07 12.2 54 34 -3.2 26.3
16:05 1020 30.12 849 25.07 12.1 53.8 34 -3.3 26.1
16:10 1020 30.12 849 25.07 12 53.5 37 -2.2 28.1
16:15 1020 30.12 849 25.07 11.9 53.3 34 -3.3 26
16:20 1020 30.12 849 25.07 11.7 53 34 -3.5 25.7
16:25 1020 30.12 849 25.07 11.7 53 35 -3.3 26.1
16:30 1020 30.12 849 25.07 11.6 52.9 35 -3.2 26.3
16:35 1020 30.12 849 25.07 11.5 52.6 36 -3.1 26.3
16:40 1019 30.09 849 25.07 11.5 52.6 35 -3.3 26.1
16:45 1019 30.09 849 25.07 11.6 52.9 35 -3.3 26.1
16:50 1019 30.09 849 25.07 11.4 52.6 36 -3 26.7
16:55 1019 30.09 849 25.07 11.4 52.6 36 -3.2 26.2
17:00 1019 30.09 848 25.04 11.5 52.6 35 -3.2 26.2
17:05 1019 30.09 849 25.07 11.5 52.8 36 -2.9 26.7
17:10 1019 30.09 848 25.04 11.3 52.4 36 -3.3 26.1
17:15 1019 30.09 849 25.07 11.5 52.6 35 -3.4 25.9
17:20 1019 30.09 848 25.04 11.5 52.6 36 -3.2 26.2
17:25 1019 30.09 848 25.04 11.5 52.7 36 -3.2 26.3
17:30 1019 30.09 848 25.04 11.4 52.5 36 -3.2 26.2
17:35 1019 30.09 848 25.04 11.1 51.9 36 -3.3 26
17:40 1019 30.09 848 25.04 11.1 52 37 -3.2 26.3
17:45 1019 30.09 848 25.04 11.2 52.2 36 -3.1 26.4
17:50 1019 30.09 848 25.04 11.3 52.3 35 -3.4 25.8
17:55 1019 30.09 848 25.04 11.2 52.1 36 -3.2 26.3
18:00 1019 30.09 848 25.04 11.2 52.2 36 -3.3 26.1
18:05 1019 30.09 848 25.04 11.4 52.5 35 -3.5 25.7
18:10 1019 30.09 848 25.04 11.6 52.9 35 -3.4 25.9
18:15 1019 30.09 848 25.04 11.5 52.7 35 -3.4 25.8
18:20 1019 30.09 848 25.04 11.3 52.4 35 -3.4 25.9
18:25 1019 30.09 848 25.04 11.4 52.5 35 -3.3 26
18:30 1019 30.09 848 25.04 10.9 51.7 37 -3.1 26.5
18:35 1019 30.09 848 25.04 10.4 50.7 39 -3.1 26.5
18:40 1019 30.09 848 25.04 10.4 50.7 38 -3.4 26
18:45 1019 30.09 848 25.04 11 51.7 37 -3.3 26.1
18:50 1019 30.09 848 25.04 11 51.8 36 -3.5 25.8
18:55 1019 30.09 848 25.04 10.9 51.6 35 -3.8 25.2
19:00 1018 30.06 848 25.04 11.2 52.1 35 -3.8 25.1
19:05 1018 30.06 848 25.04 10.8 51.4 35 -3.9 25
19:10 1018 30.06 847 25.01 11 51.7 35 -3.8 25.2
19:15 1018 30.06 847 25.01 10.8 51.4 35 -3.9 25.1
19:20 1018 30.06 847 25.01 11 51.7 35 -3.8 25.2
19:25 1018 30.06 847 25.01 10.8 51.4 36 -3.8 25.2
19:30 1018 30.06 847 25.01 11 51.7 35 -3.8 25.2
19:35 1018 30.06 847 25.01 10.8 51.4 37 -3.2 26.3
19:40 1018 30.06 847 25.01 10.6 51.2 37 -3.3 26.1
19:45 1018 30.06 847 25.01 10.5 50.9 38 -3 26.5
19:50 1018 30.06 847 25.01 10.5 50.9 37 -3.4 25.9
19:55 1018 30.06 847 25.01 10.3 50.5 39 -3.2 26.3
20:00 1018 30.06 847 25.01 10 50.1 39 -3.3 26.1
20:05 1018 30.06 847 25.01 10 49.9 39 -3.4 25.9
20:10 1018 30.06 847 25.01 9.8 49.7 40 -3 26.7
20:15 1018 30.06 847 25.01 9.6 49.2 43 -2.5 27.5
20:20 1018 30.06 847 25.01 9.3 48.8 43 -2.6 27.2
20:25 1018 30.06 847 25.01 9 48.3 44 -2.6 27.3
20:30 1018 30.06 847 25.01 8.8 47.8 45 -2.6 27.4
20:35 1018 30.06 847 25.01 8.6 47.5 45 -2.7 27.1
20:40 1018 30.06 847 25.01 8.4 47.1 45 -2.8 27
20:45 1018 30.06 847 25.01 8.2 46.8 46 -2.8 27
20:50 1018 30.06 847 25.01 8.1 46.7 46 -2.9 26.8
20:55 1018 30.06 847 25.01 8.1 46.6 46 -2.8 26.9
21:00 1018 30.06 847 25.01 8 46.4 46 -2.8 26.9
21:05 1018 30.06 847 25.01 7.9 46.2 47 -2.8 27
21:10 1018 30.06 847 25.01 7.8 46 48 -2.6 27.2
21:15 1018 30.06 847 25.01 7.8 46 47 -2.7 27.1
21:20 1018 30.06 847 25.01 7.7 45.9 47 -2.7 27.1
21:25 1018 30.06 847 25.01 7.8 46 47 -2.8 26.9
21:30 1018 30.06 847 25.01 7.7 45.8 48 -2.7 27.1
21:35 1018 30.06 847 25.01 7.6 45.6 47 -2.9 26.8
21:40 1017 30.03 847 25.01 7.4 45.3 49 -2.7 27.1
21:45 1018 30.06 847 25.01 7.3 45.1 49 -2.7 27.2
21:50 1018 30.06 847 25.01 7.2 44.9 50 -2.6 27.2
21:55 1017 30.03 847 25.01 7.1 44.8 50 -2.6 27.3
22:00 1018 30.06 847 25.01 7 44.6 50 -2.8 27
22:05 1017 30.03 847 25.01 7.1 44.7 50 -2.7 27.2
22:10 1017 30.03 847 25.01 7.1 44.7 49 -2.8 26.9
22:15 1017 30.03 847 25.01 7.1 44.8 49 -2.8 27
22:20 1017 30.03 847 25.01 7 44.6 50 -2.7 27.1
22:25 1017 30.03 846 24.98 7 44.6 51 -2.4 27.6
22:30 1017 30.03 846 24.98 6.8 44.3 51 -2.5 27.6
22:35 1017 30.03 846 24.98 6.8 44.2 52 -2.4 27.6
22:40 1017 30.03 846 24.98 6.6 43.9 53 -2.3 27.9
22:45 1017 30.03 846 24.98 6.6 43.8 54 -2.1 28.2
22:50 1018 30.06 847 25.01 6.5 43.7 54 -2.1 28.3
22:55 1017 30.03 846 24.98 6.5 43.6 55 -2 28.4
23:00 1017 30.03 846 24.98 6.5 43.8 55 -1.9 28.6
23:05 1017 30.03 846 24.98 6.5 43.7 54 -2 28.3
23:10 1017 30.03 846 24.98 6.4 43.6 55 -1.8 28.7
23:15 1017 30.03 846 24.98 6.2 43.2 57 -1.6 29.1
23:20 1017 30.03 846 24.98 6.1 43 58 -1.6 29.1
23:25 1017 30.03 846 24.98 6 42.8 58 -1.5 29.3
23:30 1017 30.03 846 24.98 5.8 42.5 59 -1.5 29.3
23:35 1017 30.03 846 24.98 5.9 42.5 59 -1.6 29.1
23:40 1017 30.03 846 24.98 5.9 42.6 59 -1.5 29.3
23:45 1017 30.03 846 24.98 5.9 42.6 58 -1.7 28.9
23:50 1017 30.03 846 24.98 6 42.7 57 -1.9 28.6
23:55 1017 30.03 846 24.98 6 42.8 57 -1.9 28.6
24:00 1017 30.03 846 24.98 5.9 42.7 56 -2 28.3